createdAt,value
2024-03-14T00:02:13.182Z,9.45
2024-03-14T00:05:16.933Z,9.50
2024-03-14T00:08:19.843Z,9.58
2024-03-14T00:11:22.659Z,9.59
2024-03-14T00:14:25.364Z,9.67
2024-03-14T00:17:28.077Z,9.66
2024-03-14T00:20:30.807Z,9.73
2024-03-14T00:23:33.441Z,9.72
2024-03-14T00:26:36.103Z,9.66
2024-03-14T00:29:38.770Z,9.70
2024-03-14T00:32:41.484Z,9.78
2024-03-14T00:35:44.192Z,9.78
2024-03-14T00:38:47.782Z,9.80
2024-03-14T00:41:51.413Z,9.78
2024-03-14T00:44:54.134Z,9.74
2024-03-14T00:47:57.544Z,9.79
2024-03-14T00:51:00.660Z,9.78
2024-03-14T00:54:05.655Z,9.76
2024-03-14T00:57:08.440Z,9.71
2024-03-14T01:00:14.316Z,9.74
2024-03-14T01:03:18.355Z,9.73
2024-03-14T01:06:21.760Z,9.73
2024-03-14T01:09:26.920Z,9.79
2024-03-14T01:12:29.886Z,9.72
2024-03-14T01:15:32.580Z,9.65
2024-03-14T01:18:35.620Z,9.68
2024-03-14T01:21:38.955Z,9.78
2024-03-14T01:24:41.743Z,9.71
2024-03-14T01:27:44.770Z,9.74
2024-03-14T01:30:47.509Z,9.72
2024-03-14T01:33:51.560Z,9.68
2024-03-14T01:36:54.264Z,9.74
2024-03-14T01:39:57.226Z,9.69
2024-03-14T01:42:59.903Z,9.66
2024-03-14T01:46:03.752Z,9.67
2024-03-14T01:49:07.239Z,9.65
2024-03-14T01:52:10.006Z,9.69
2024-03-14T01:55:12.791Z,9.62
2024-03-14T01:58:16.421Z,9.52
2024-03-14T02:01:19.169Z,9.45
2024-03-14T02:04:21.882Z,9.43
2024-03-14T02:07:24.870Z,9.39
2024-03-14T02:10:27.723Z,9.40
2024-03-14T02:13:30.703Z,9.38
2024-03-14T02:16:33.519Z,9.37
2024-03-14T02:19:37.315Z,9.32
2024-03-14T02:22:40.417Z,9.33
2024-03-14T02:25:44.072Z,9.29
2024-03-14T02:28:47.044Z,9.24
2024-03-14T02:31:52.351Z,9.14
2024-03-14T02:34:55.045Z,9.08
2024-03-14T02:37:57.710Z,9.07
2024-03-14T02:41:00.387Z,9.11
2024-03-14T02:44:03.254Z,9.08
2024-03-14T02:47:08.563Z,9.09
2024-03-14T02:50:11.336Z,9.08
2024-03-14T02:53:14.904Z,9.07
2024-03-14T02:56:17.572Z,9.05
2024-03-14T02:59:20.372Z,9.07
2024-03-14T03:02:23.900Z,9.09
2024-03-14T03:05:26.865Z,9.05
2024-03-14T03:08:29.555Z,9.07
2024-03-14T03:11:33.376Z,9.13
2024-03-14T03:14:36.888Z,9.10
2024-03-14T03:17:41.044Z,9.11
2024-03-14T03:20:43.805Z,9.12
2024-03-14T03:23:46.493Z,9.10
2024-03-14T03:26:48.268Z,9.09
2024-03-14T03:29:50.800Z,9.21
2024-03-14T03:32:53.657Z,9.14
2024-03-14T03:35:56.471Z,9.17
2024-03-14T03:38:58.365Z,9.17
2024-03-14T03:42:01.313Z,9.20
2024-03-14T03:45:10.762Z,9.24
2024-03-14T03:48:13.608Z,9.23
2024-03-14T03:51:15.471Z,9.23
2024-03-14T03:54:19.994Z,9.35
2024-03-14T03:57:21.785Z,9.26
2024-03-14T04:00:35.526Z,9.40
2024-03-14T04:03:41.494Z,9.31
2024-03-14T04:06:43.332Z,9.27
2024-03-14T04:09:48.132Z,9.41
2024-03-14T04:12:49.912Z,9.31
2024-03-14T04:15:52.881Z,9.41
2024-03-14T04:18:55.590Z,9.29
2024-03-14T04:21:59.576Z,9.32
2024-03-14T04:25:04.665Z,9.36
2024-03-14T04:28:09.365Z,9.35
2024-03-14T04:31:12.320Z,9.35
2024-03-14T04:34:15.619Z,9.40
2024-03-14T04:37:18.377Z,9.42
2024-03-14T04:40:21.742Z,9.43
2024-03-14T04:43:26.432Z,9.43
2024-03-14T04:46:29.133Z,9.45
2024-03-14T04:49:33.175Z,9.46
2024-03-14T04:52:35.997Z,9.48
2024-03-14T04:55:40.661Z,9.47
2024-03-14T04:58:43.329Z,9.49
2024-03-14T05:01:46.718Z,9.45
2024-03-14T05:04:49.496Z,9.43
2024-03-14T05:07:52.249Z,9.49
2024-03-14T05:10:55.013Z,9.50
2024-03-14T05:13:58.588Z,9.50
2024-03-14T05:17:01.324Z,9.48
2024-03-14T05:20:05.997Z,9.51
2024-03-14T05:23:08.714Z,9.51
2024-03-14T05:26:11.998Z,9.50
2024-03-14T05:29:14.858Z,9.48
2024-03-14T05:32:21.867Z,9.57
2024-03-14T05:35:24.525Z,9.59
2024-03-14T05:38:27.184Z,9.59
2024-03-14T05:41:30.493Z,9.60
2024-03-14T05:44:33.165Z,9.66
2024-03-14T05:47:36.910Z,9.65
2024-03-14T05:50:40.202Z,9.68
2024-03-14T05:53:43.802Z,9.71
2024-03-14T05:56:46.541Z,9.80
2024-03-14T05:59:52.606Z,9.82
2024-03-14T06:02:55.347Z,9.89
2024-03-14T06:05:58.449Z,9.90
2024-03-14T06:09:01.165Z,9.95
2024-03-14T06:12:06.309Z,10.02
2024-03-14T06:15:10.292Z,10.04
2024-03-14T06:18:13.314Z,10.06
2024-03-14T06:21:16.079Z,10.05
2024-03-14T06:24:19.099Z,10.11
2024-03-14T06:27:21.798Z,10.14
2024-03-14T06:30:26.054Z,10.14
2024-03-14T06:33:29.712Z,10.16
2024-03-14T06:36:32.499Z,10.17
2024-03-14T06:39:38.707Z,10.19
2024-03-14T06:42:42.445Z,10.23
2024-03-14T06:45:45.421Z,10.27
2024-03-14T06:48:48.209Z,10.37
2024-03-14T06:51:51.599Z,10.51
2024-03-14T06:54:55.766Z,10.58
2024-03-14T06:57:58.464Z,10.56
2024-03-14T07:01:01.200Z,10.61
2024-03-14T07:04:03.949Z,10.60
2024-03-14T07:07:06.617Z,10.69
2024-03-14T07:10:10.205Z,10.71
2024-03-14T07:13:13.470Z,10.71
2024-03-14T07:16:17.287Z,10.75
2024-03-14T07:19:22.636Z,10.79
2024-03-14T07:22:26.294Z,10.87
2024-03-14T07:25:29.032Z,10.88
2024-03-14T07:28:33.040Z,10.89
2024-03-14T07:31:35.860Z,10.83
2024-03-14T07:34:38.608Z,10.88
2024-03-14T07:37:41.271Z,10.91
2024-03-14T07:40:44.430Z,11.01
2024-03-14T07:43:47.666Z,11.14
2024-03-14T07:46:51.596Z,11.21
2024-03-14T07:49:54.331Z,11.31
2024-03-14T07:52:57.869Z,11.37
2024-03-14T07:56:00.569Z,11.38
2024-03-14T07:59:03.449Z,11.44
2024-03-14T08:02:08.471Z,11.41
2024-03-14T08:05:12.794Z,11.46
2024-03-14T08:08:22.537Z,11.62
2024-03-14T08:11:30.386Z,11.70
2024-03-14T08:14:34.846Z,11.79
2024-03-14T08:17:37.542Z,11.77
2024-03-14T08:20:40.986Z,11.84
2024-03-14T08:23:43.717Z,11.91
2024-03-14T08:26:48.372Z,12.02
2024-03-14T08:29:51.276Z,12.28
2024-03-14T08:32:54.851Z,12.46
2024-03-14T08:35:58.425Z,12.65
2024-03-14T08:39:01.652Z,13.05
2024-03-14T08:42:06.160Z,13.26
2024-03-14T08:45:11.041Z,13.42
2024-03-14T08:48:13.861Z,13.47
2024-03-14T08:51:16.720Z,13.81
2024-03-14T08:54:35.266Z,14.00
2024-03-14T08:57:38.164Z,13.58
2024-03-14T09:00:41.257Z,13.73
2024-03-14T09:03:44.193Z,14.29
2024-03-14T09:06:46.970Z,14.54
2024-03-14T09:09:50.427Z,14.59
2024-03-14T09:12:53.723Z,14.82
2024-03-14T09:15:56.464Z,15.16
2024-03-14T09:18:59.215Z,15.43
2024-03-14T09:22:02.545Z,15.42
2024-03-14T09:25:08.095Z,15.39
2024-03-14T09:28:12.667Z,15.15
2024-03-14T09:31:15.385Z,15.46
2024-03-14T09:34:18.928Z,15.73
2024-03-14T09:37:26.336Z,15.62
2024-03-14T09:40:29.219Z,15.48
2024-03-14T09:43:31.930Z,15.30
2024-03-14T09:46:35.488Z,15.32
2024-03-14T09:49:38.168Z,15.26
2024-03-14T09:52:40.859Z,14.97
2024-03-14T09:55:43.606Z,14.82
2024-03-14T09:58:46.305Z,14.95
2024-03-14T10:01:50.716Z,15.05
2024-03-14T10:04:53.389Z,15.21
2024-03-14T10:07:56.959Z,15.08
2024-03-14T10:10:59.686Z,14.95
2024-03-14T10:14:07.917Z,14.86
2024-03-14T10:17:11.982Z,14.68
2024-03-14T10:20:15.893Z,14.76
2024-03-14T10:23:19.677Z,14.85
2024-03-14T10:26:23.816Z,14.72
2024-03-14T10:29:30.248Z,14.46
2024-03-14T10:32:33.160Z,14.40
2024-03-14T10:35:35.940Z,14.43
2024-03-14T10:38:38.848Z,14.41
2024-03-14T10:41:42.664Z,14.74
2024-03-14T10:44:45.362Z,15.00
2024-03-14T10:47:50.379Z,15.07
2024-03-14T10:50:55.766Z,15.29
2024-03-14T10:53:58.618Z,15.42
2024-03-14T10:57:01.366Z,15.59
2024-03-14T11:00:05.214Z,15.62
2024-03-14T11:03:08.035Z,15.66
2024-03-14T11:06:11.849Z,15.80
2024-03-14T11:09:15.054Z,15.99
2024-03-14T11:12:18.032Z,15.90
2024-03-14T11:15:22.790Z,15.95
2024-03-14T11:18:26.634Z,16.00
2024-03-14T11:21:32.934Z,16.01
2024-03-14T11:24:35.935Z,15.98
2024-03-14T11:27:38.826Z,16.07
2024-03-14T11:30:44.214Z,16.17
2024-03-14T11:33:47.199Z,16.37
2024-03-14T11:36:52.100Z,16.44
2024-03-14T11:39:54.912Z,16.64
2024-03-14T11:42:58.060Z,16.52
2024-03-14T11:46:00.777Z,16.53
2024-03-14T11:49:16.117Z,16.89
2024-03-14T11:52:19.076Z,16.65
2024-03-14T11:55:22.380Z,16.45
2024-03-14T11:58:25.245Z,16.36
2024-03-14T12:01:40.986Z,16.28
2024-03-14T12:04:50.002Z,15.63
2024-03-14T12:07:55.813Z,15.66
2024-03-14T12:10:59.639Z,15.58
2024-03-14T12:14:03.525Z,15.59
2024-03-14T12:17:06.539Z,15.39
2024-03-14T12:20:12.272Z,15.43
2024-03-14T12:23:15.172Z,15.41
2024-03-14T12:26:18.803Z,15.43
2024-03-14T12:29:22.508Z,15.64
2024-03-14T12:32:25.579Z,15.72
2024-03-14T12:35:29.120Z,15.64
2024-03-14T12:38:31.836Z,15.55
2024-03-14T12:41:35.004Z,15.63
2024-03-14T12:44:37.948Z,15.62
2024-03-14T12:47:40.630Z,15.66
2024-03-14T12:50:44.047Z,15.64
2024-03-14T12:53:55.313Z,15.72
2024-03-14T12:56:58.067Z,15.73
2024-03-14T13:00:00.960Z,16.04
2024-03-14T13:03:03.790Z,16.23
2024-03-14T13:06:06.805Z,16.28
2024-03-14T13:09:15.721Z,16.15
2024-03-14T13:12:19.780Z,16.23
2024-03-14T13:15:24.287Z,16.39
2024-03-14T13:18:28.532Z,16.22
2024-03-14T13:21:44.474Z,16.14
2024-03-14T13:24:51.025Z,15.86
2024-03-14T13:27:53.831Z,15.80
2024-03-14T13:30:56.546Z,15.79
2024-03-14T13:34:01.091Z,16.00
2024-03-14T13:37:04.443Z,15.98
2024-03-14T13:43:24.559Z,16.16
2024-03-14T13:46:32.714Z,15.90
2024-03-14T13:49:38.980Z,15.79
2024-03-14T13:52:42.193Z,15.65
2024-03-14T13:55:45.106Z,15.62
2024-03-14T13:58:48.014Z,15.61
2024-03-14T14:01:50.735Z,15.68
2024-03-14T14:04:53.570Z,15.64
2024-03-14T14:08:01.647Z,15.65
2024-03-14T14:11:05.181Z,15.54
2024-03-14T14:14:08.953Z,15.53
2024-03-14T14:17:12.004Z,15.41
2024-03-14T14:20:18.195Z,15.40
2024-03-14T14:23:21.510Z,15.47
2024-03-14T14:26:24.429Z,15.53
2024-03-14T14:29:27.281Z,15.61
2024-03-14T14:32:30.651Z,15.55
2024-03-14T14:35:33.402Z,15.47
2024-03-14T14:38:37.278Z,15.58
2024-03-14T14:41:39.976Z,15.48
2024-03-14T14:44:42.747Z,15.57
2024-03-14T14:47:46.457Z,15.65
2024-03-14T14:50:49.253Z,15.67
2024-03-14T14:53:53.149Z,15.46
2024-03-14T14:56:55.920Z,15.26
2024-03-14T14:59:58.895Z,15.33
2024-03-14T15:03:03.737Z,15.23
2024-03-14T15:06:07.191Z,15.20
2024-03-14T15:09:10.420Z,15.29
2024-03-14T15:12:13.279Z,15.38
2024-03-14T15:15:22.881Z,15.35
2024-03-14T15:18:25.731Z,15.32
2024-03-14T15:21:28.753Z,15.34
2024-03-14T15:24:32.999Z,15.29
2024-03-14T15:27:38.082Z,15.30
2024-03-14T15:30:42.407Z,15.34
2024-03-14T15:33:45.491Z,15.33
2024-03-14T15:36:48.373Z,15.29
2024-03-14T15:39:51.192Z,15.29
2024-03-14T15:42:53.881Z,15.28
2024-03-14T15:45:56.559Z,15.38
2024-03-14T15:48:59.288Z,15.40
2024-03-14T15:52:03.969Z,15.34
2024-03-14T15:55:07.936Z,15.26
2024-03-14T15:58:10.785Z,15.22
2024-03-14T16:01:14.908Z,15.12
2024-03-14T16:04:18.052Z,15.07
2024-03-14T16:07:20.732Z,14.97
2024-03-14T16:10:24.337Z,14.92
2024-03-14T16:13:27.036Z,14.86
2024-03-14T16:16:29.845Z,14.76
2024-03-14T16:19:32.755Z,14.70
2024-03-14T16:22:35.634Z,14.58
2024-03-14T16:25:39.563Z,14.44
2024-03-14T16:28:44.189Z,14.32
2024-03-14T16:31:47.097Z,14.20
2024-03-14T16:34:50.248Z,14.17
2024-03-14T16:37:52.931Z,14.23
2024-03-14T16:40:55.638Z,14.15
2024-03-14T16:43:59.526Z,14.09
2024-03-14T16:47:02.234Z,13.99
2024-03-14T16:50:05.148Z,13.95
2024-03-14T16:53:11.783Z,13.77
2024-03-14T16:56:14.600Z,13.62
2024-03-14T16:59:18.241Z,13.51
2024-03-14T17:02:21.078Z,13.33
2024-03-14T17:05:23.841Z,13.17
2024-03-14T17:08:26.484Z,13.07
2024-03-14T17:11:29.221Z,13.01
2024-03-14T17:14:33.272Z,12.93
2024-03-14T17:17:36.082Z,12.82
2024-03-14T17:20:38.898Z,12.65
2024-03-14T17:23:42.378Z,12.53
2024-03-14T17:26:45.421Z,12.31
2024-03-14T17:29:48.538Z,12.14
2024-03-14T17:32:52.224Z,12.00
2024-03-14T17:35:57.071Z,12.01
2024-03-14T17:38:59.875Z,11.88
2024-03-14T17:42:02.703Z,11.68
2024-03-14T17:45:06.536Z,11.55
2024-03-14T17:48:10.681Z,11.44
2024-03-14T17:51:13.727Z,11.34
2024-03-14T17:54:18.761Z,11.31
2024-03-14T17:57:21.583Z,11.25
2024-03-14T18:00:26.561Z,11.13
2024-03-14T18:03:29.352Z,11.01
2024-03-14T18:06:33.345Z,10.88
2024-03-14T18:09:37.595Z,10.74
2024-03-14T18:12:41.116Z,10.68
2024-03-14T18:15:44.089Z,10.73
2024-03-14T18:18:46.969Z,10.68
2024-03-14T18:21:50.421Z,10.56
2024-03-14T18:24:53.952Z,10.46
2024-03-14T18:27:56.715Z,10.37
2024-03-14T18:31:01.867Z,10.41
2024-03-14T18:34:04.742Z,10.40
2024-03-14T18:37:07.843Z,10.41
2024-03-14T18:40:11.041Z,10.45
2024-03-14T18:43:14.712Z,10.78
2024-03-14T18:46:18.302Z,10.94
2024-03-14T18:49:23.941Z,11.03
2024-03-14T18:52:26.712Z,10.98
2024-03-14T18:55:29.592Z,11.04
2024-03-14T18:58:32.348Z,11.14
2024-03-14T19:01:35.144Z,11.25
2024-03-14T19:04:37.836Z,11.32
2024-03-14T19:07:41.171Z,11.36
2024-03-14T19:10:43.975Z,11.30
2024-03-14T19:13:47.476Z,11.27
2024-03-14T19:16:50.386Z,11.21
2024-03-14T19:19:53.739Z,11.25
2024-03-14T19:22:56.501Z,11.32
2024-03-14T19:25:59.637Z,11.32
2024-03-14T19:29:02.451Z,11.21
2024-03-14T19:32:06.874Z,11.15
2024-03-14T19:35:11.675Z,11.07
2024-03-14T19:38:14.460Z,11.01
2024-03-14T19:41:17.284Z,11.09
2024-03-14T19:44:19.986Z,11.15
2024-03-14T19:47:22.655Z,11.04
2024-03-14T19:50:26.808Z,10.96
2024-03-14T19:53:30.622Z,10.85
2024-03-14T19:56:33.334Z,10.81
2024-03-14T19:59:37.829Z,10.85
2024-03-14T20:02:41.905Z,10.94
2024-03-14T20:05:45.333Z,10.99
2024-03-14T20:08:48.717Z,10.93
2024-03-14T20:11:53.249Z,10.92
2024-03-14T20:14:57.881Z,10.90
2024-03-14T20:18:01.289Z,10.95
2024-03-14T20:21:04.203Z,10.86
2024-03-14T20:24:08.028Z,10.96
2024-03-14T20:27:12.740Z,10.94
2024-03-14T20:30:15.999Z,10.90
2024-03-14T20:33:18.967Z,10.81
2024-03-14T20:36:22.346Z,10.70
2024-03-14T20:39:25.951Z,10.68
2024-03-14T20:42:32.969Z,10.56
2024-03-14T20:45:36.498Z,10.58
2024-03-14T20:48:40.183Z,10.47
2024-03-14T20:51:44.739Z,10.48
2024-03-14T20:54:47.518Z,10.48
2024-03-14T20:57:52.217Z,10.42
2024-03-14T21:00:55.349Z,10.39
2024-03-14T21:03:58.713Z,10.27
2024-03-14T21:07:01.635Z,10.21
2024-03-14T21:10:05.542Z,10.19
2024-03-14T21:13:12.000Z,10.11
2024-03-14T21:16:18.563Z,10.24
2024-03-14T21:19:21.298Z,10.27
2024-03-14T21:22:26.402Z,10.28
2024-03-14T21:25:29.736Z,10.22
2024-03-14T21:28:33.957Z,10.20
2024-03-14T21:31:36.943Z,10.22
2024-03-14T21:34:39.789Z,10.11
2024-03-14T21:37:42.509Z,10.09
2024-03-14T21:40:45.915Z,10.05
2024-03-14T21:43:48.612Z,10.03
2024-03-14T21:46:52.073Z,10.00
2024-03-14T21:49:54.802Z,9.93
2024-03-14T21:52:57.790Z,9.92
2024-03-14T21:56:00.631Z,10.01
2024-03-14T21:59:04.197Z,10.05
2024-03-14T22:02:09.542Z,10.07
2024-03-14T22:05:12.369Z,10.05
2024-03-14T22:08:20.555Z,10.03
2024-03-14T22:11:23.256Z,10.01
2024-03-14T22:14:26.228Z,10.01
2024-03-14T22:17:29.018Z,9.97
2024-03-14T22:20:31.697Z,9.90
2024-03-14T22:23:34.449Z,9.85
2024-03-14T22:26:37.123Z,9.77
2024-03-14T22:29:39.810Z,9.69
2024-03-14T22:32:42.517Z,9.58
2024-03-14T22:35:46.300Z,9.53
2024-03-14T22:38:49.082Z,9.55
2024-03-14T22:41:52.368Z,9.56
2024-03-14T22:44:55.040Z,9.54
2024-03-14T22:47:57.728Z,9.38
2024-03-14T22:51:00.462Z,9.24
2024-03-14T22:54:03.648Z,9.13
2024-03-14T22:57:07.999Z,9.02
2024-03-14T23:00:33.048Z,8.95
2024-03-14T23:03:35.758Z,8.79
2024-03-14T23:06:38.458Z,8.79
2024-03-14T23:09:41.472Z,8.79
2024-03-14T23:12:44.422Z,8.87
2024-03-14T23:15:47.426Z,8.93
2024-03-14T23:18:50.240Z,9.02
2024-03-14T23:21:53.737Z,8.95
2024-03-14T23:24:56.411Z,8.92
2024-03-14T23:27:59.439Z,9.00
2024-03-14T23:31:02.381Z,9.07
2024-03-14T23:34:05.130Z,9.21
2024-03-14T23:37:08.438Z,9.10
2024-03-14T23:40:13.524Z,9.07
2024-03-14T23:43:16.198Z,9.02
2024-03-14T23:46:19.990Z,8.94
2024-03-14T23:49:22.655Z,8.88
2024-03-14T23:52:25.676Z,8.94
2024-03-14T23:55:29.059Z,8.95
2024-03-14T23:58:32.335Z,9.05
